createdAt,value
2023-08-23T00:00:39.341Z,4.57
2023-08-23T00:01:41.191Z,4.80
2023-08-23T00:02:43.070Z,4.80
2023-08-23T00:03:44.770Z,4.72
2023-08-23T00:04:48.970Z,4.78
2023-08-23T00:05:50.670Z,4.97
2023-08-23T00:06:52.356Z,5.03
2023-08-23T00:07:54.249Z,4.75
2023-08-23T00:08:55.929Z,5.03
2023-08-23T00:10:00.197Z,5.18
2023-08-23T00:11:01.998Z,5.07
2023-08-23T00:12:03.922Z,4.82
2023-08-23T00:13:05.588Z,4.68
2023-08-23T00:14:10.188Z,4.72
2023-08-23T00:15:11.852Z,4.82
2023-08-23T00:17:15.282Z,4.60
2023-08-23T00:18:17.027Z,4.53
2023-08-23T00:20:20.783Z,4.88
2023-08-23T00:21:22.625Z,4.35
2023-08-23T00:22:24.391Z,5.05
2023-08-23T00:23:31.146Z,4.55
2023-08-23T00:24:32.851Z,4.25
2023-08-23T00:25:34.541Z,4.25
2023-08-23T00:26:36.283Z,4.85
2023-08-23T00:27:38.003Z,4.38
2023-08-23T00:29:42.504Z,4.80
2023-08-23T00:31:56.713Z,4.70
2023-08-23T00:32:58.481Z,5.40
2023-08-23T00:34:02.390Z,4.97
2023-08-23T00:35:04.518Z,5.43
2023-08-23T00:36:06.396Z,4.80
2023-08-23T00:37:08.194Z,4.93
2023-08-23T00:38:12.039Z,5.03
2023-08-23T00:39:14.097Z,5.18
2023-08-23T00:40:20.145Z,5.60
2023-08-23T00:41:24.375Z,5.03
2023-08-23T00:42:26.135Z,4.82
2023-08-23T00:43:28.010Z,5.30
2023-08-23T00:44:29.713Z,4.75
2023-08-23T00:45:35.653Z,4.90
2023-08-23T00:46:37.519Z,4.97
2023-08-23T00:47:39.435Z,5.15
2023-08-23T00:48:46.178Z,5.00
2023-08-23T00:49:48.488Z,5.03
2023-08-23T00:50:52.649Z,5.30
2023-08-23T00:51:54.880Z,4.82
2023-08-23T00:52:57.367Z,5.00
2023-08-23T00:54:01.870Z,5.30
2023-08-23T00:55:03.829Z,4.90
2023-08-23T00:56:05.759Z,5.10
2023-08-23T00:57:08.728Z,5.00
2023-08-23T00:58:10.803Z,5.10
2023-08-23T00:59:12.629Z,4.60
2023-08-23T01:00:15.395Z,4.70
2023-08-23T01:01:17.524Z,5.47
2023-08-23T01:03:23.971Z,4.93
2023-08-23T01:04:25.819Z,4.97
2023-08-23T01:05:43.438Z,5.00
2023-08-23T01:06:58.222Z,5.32
2023-08-23T01:08:10.494Z,5.18
2023-08-23T01:09:33.961Z,4.80
2023-08-23T01:10:47.983Z,5.13
2023-08-23T01:12:09.427Z,4.90
2023-08-23T01:13:33.114Z,5.07
2023-08-23T01:15:11.482Z,5.30
2023-08-23T01:16:17.193Z,4.68
2023-08-23T01:17:20.991Z,5.07
2023-08-23T01:18:24.840Z,5.20
2023-08-23T01:19:29.326Z,5.00
2023-08-23T01:20:32.862Z,4.85
2023-08-23T01:21:38.707Z,5.10
2023-08-23T01:22:50.161Z,5.20
2023-08-23T01:23:52.845Z,5.32
2023-08-23T01:24:54.779Z,4.90
2023-08-23T01:25:56.747Z,4.85
2023-08-23T01:27:00.752Z,5.22
2023-08-23T01:28:02.696Z,5.22
2023-08-23T01:29:05.818Z,5.00
2023-08-23T01:30:07.994Z,5.50
2023-08-23T01:31:13.036Z,5.00
2023-08-23T01:32:22.638Z,4.72
2023-08-23T01:33:34.552Z,4.95
2023-08-23T01:34:41.681Z,5.55
2023-08-23T01:35:48.963Z,5.10
2023-08-23T01:36:52.220Z,5.20
2023-08-23T01:37:55.867Z,4.90
2023-08-23T01:38:58.811Z,4.88
2023-08-23T01:40:02.836Z,4.90
2023-08-23T01:41:06.587Z,5.07
2023-08-23T01:42:09.441Z,5.18
2023-08-23T01:43:11.253Z,5.10
2023-08-23T01:44:12.986Z,4.65
2023-08-23T01:45:15.297Z,5.13
2023-08-23T01:46:17.046Z,5.43
2023-08-23T01:47:19.743Z,5.38
2023-08-23T01:48:21.568Z,5.68
2023-08-23T01:49:25.412Z,5.20
2023-08-23T01:50:27.072Z,5.60
2023-08-23T01:52:30.869Z,5.10
2023-08-23T01:53:32.547Z,5.18
2023-08-23T01:55:36.023Z,5.03
2023-08-23T01:56:37.751Z,5.50
2023-08-23T01:57:41.414Z,5.00
2023-08-23T01:58:43.195Z,5.43
2023-08-23T02:00:48.679Z,4.55
2023-08-23T02:01:50.612Z,4.90
2023-08-23T02:02:54.817Z,5.20
2023-08-23T02:03:56.681Z,4.97
2023-08-23T02:06:00.070Z,5.32
2023-08-23T02:07:01.836Z,4.82
2023-08-23T02:08:07.857Z,5.30
2023-08-23T02:09:09.494Z,5.07
2023-08-23T02:10:11.251Z,5.43
2023-08-23T02:12:19.044Z,5.28
2023-08-23T02:14:25.440Z,5.47
2023-08-23T02:15:29.650Z,5.18
2023-08-23T02:16:31.590Z,5.00
2023-08-23T02:17:33.272Z,4.82
2023-08-23T02:19:36.663Z,5.35
2023-08-23T02:21:40.208Z,5.25
2023-08-23T02:22:41.958Z,4.97
2023-08-23T02:24:46.697Z,5.00
2023-08-23T02:25:48.459Z,5.00
2023-08-23T02:27:54.138Z,5.07
2023-08-23T02:28:58.220Z,5.40
2023-08-23T02:29:59.835Z,5.38
2023-08-23T02:31:04.370Z,5.43
2023-08-23T02:32:06.254Z,5.55
2023-08-23T02:33:10.181Z,5.20
2023-08-23T02:34:11.945Z,5.72
2023-08-23T02:35:13.989Z,6.13
2023-08-23T02:36:21.448Z,5.53
2023-08-23T02:37:23.203Z,5.40
2023-08-23T02:38:25.127Z,6.00
2023-08-23T02:40:33.446Z,6.00
2023-08-23T02:41:35.504Z,5.75
2023-08-23T02:43:39.339Z,6.15
2023-08-23T02:44:44.601Z,5.68
2023-08-23T02:45:46.225Z,5.88
2023-08-23T02:47:50.171Z,6.10
2023-08-23T02:48:55.010Z,5.75
2023-08-23T02:49:57.233Z,5.30
2023-08-23T02:52:02.894Z,5.20
2023-08-23T02:53:04.964Z,5.20
2023-08-23T02:54:06.800Z,4.93
2023-08-23T02:55:08.743Z,5.30
2023-08-23T02:56:10.413Z,5.25
2023-08-23T02:58:14.024Z,5.60
2023-08-23T02:59:15.675Z,4.95
2023-08-23T03:01:19.412Z,5.40
2023-08-23T03:02:21.254Z,5.55
2023-08-23T03:03:23.027Z,5.10
2023-08-23T03:04:24.746Z,5.28
2023-08-23T03:06:28.170Z,5.35
2023-08-23T03:07:29.975Z,5.13
2023-08-23T03:09:33.390Z,5.18
2023-08-23T03:10:37.642Z,5.18
2023-08-23T03:11:39.405Z,5.15
2023-08-23T03:12:41.628Z,5.35
2023-08-23T03:14:44.881Z,5.03
2023-08-23T03:15:54.589Z,4.95
2023-08-23T03:16:56.352Z,5.03
2023-08-23T03:17:58.118Z,5.40
2023-08-23T03:19:02.648Z,5.43
2023-08-23T03:20:06.028Z,5.60
2023-08-23T03:21:09.116Z,5.07
2023-08-23T03:22:13.805Z,4.95
2023-08-23T03:23:20.666Z,5.03
2023-08-23T03:24:24.029Z,5.47
2023-08-23T03:25:26.400Z,5.20
2023-08-23T03:26:28.150Z,4.93
2023-08-23T03:27:32.235Z,5.20
2023-08-23T03:28:34.139Z,5.40
2023-08-23T03:29:39.602Z,5.40
2023-08-23T03:30:43.093Z,5.50
2023-08-23T03:31:47.211Z,5.43
2023-08-23T03:32:53.403Z,5.15
2023-08-23T03:33:56.410Z,5.13
2023-08-23T03:34:58.268Z,5.38
2023-08-23T03:37:02.967Z,5.30
2023-08-23T03:38:04.983Z,5.30
2023-08-23T03:39:06.673Z,5.30
2023-08-23T03:41:14.286Z,5.32
2023-08-23T03:42:15.992Z,5.47
2023-08-23T03:44:20.819Z,5.45
2023-08-23T03:45:25.087Z,5.65
2023-08-23T03:46:31.145Z,5.05
2023-08-23T03:47:33.202Z,4.97
2023-08-23T03:48:35.295Z,5.75
2023-08-23T03:50:39.654Z,5.88
2023-08-23T03:52:43.073Z,5.60
2023-08-23T03:53:45.474Z,5.50
2023-08-23T03:55:53.077Z,5.95
2023-08-23T03:56:54.810Z,6.00
2023-08-23T03:58:59.495Z,5.70
2023-08-23T04:00:01.244Z,5.75
2023-08-23T04:02:04.699Z,5.93
2023-08-23T04:03:06.809Z,6.28
2023-08-23T04:04:08.722Z,6.25
2023-08-23T04:05:13.075Z,5.32
2023-08-23T04:06:15.082Z,5.55
2023-08-23T04:09:20.982Z,5.72
2023-08-23T04:11:26.719Z,5.15
2023-08-23T04:13:30.639Z,5.72
2023-08-23T04:14:32.410Z,5.50
2023-08-23T04:15:37.268Z,5.38
2023-08-23T04:16:39.447Z,5.53
2023-08-23T04:17:41.175Z,5.90
2023-08-23T04:18:42.978Z,5.53
2023-08-23T04:20:46.152Z,5.70
2023-08-23T04:21:48.505Z,5.70
2023-08-23T04:22:50.223Z,6.15
2023-08-23T04:24:56.637Z,6.10
2023-08-23T04:25:58.325Z,5.93
2023-08-23T04:28:01.812Z,6.25
2023-08-23T04:29:06.175Z,6.13
2023-08-23T04:31:15.069Z,6.03
2023-08-23T04:32:28.712Z,5.82
2023-08-23T04:33:30.729Z,5.95
2023-08-23T04:34:35.133Z,5.70
2023-08-23T04:35:39.276Z,5.97
2023-08-23T04:36:40.960Z,5.70
2023-08-23T04:37:42.744Z,5.70
2023-08-23T04:38:44.920Z,6.30
2023-08-23T04:39:48.087Z,6.10
2023-08-23T04:40:49.916Z,6.10
2023-08-23T04:41:51.788Z,6.20
2023-08-23T04:42:53.885Z,5.93
2023-08-23T04:44:57.326Z,6.05
2023-08-23T04:46:00.143Z,5.88
2023-08-23T04:47:02.045Z,5.75
2023-08-23T04:48:06.492Z,5.57
2023-08-23T04:49:08.615Z,5.65
2023-08-23T04:51:15.330Z,6.35
2023-08-23T04:52:17.247Z,5.75
2023-08-23T04:53:19.448Z,6.55
2023-08-23T04:54:23.210Z,6.57
2023-08-23T04:55:25.481Z,5.75
2023-08-23T04:56:29.991Z,6.30
2023-08-23T04:57:31.694Z,5.78
2023-08-23T04:59:35.839Z,6.28
2023-08-23T05:00:37.710Z,6.28
2023-08-23T05:01:41.865Z,5.65
2023-08-23T05:02:45.846Z,6.40
2023-08-23T05:03:49.777Z,6.75
2023-08-23T05:04:51.455Z,6.40
2023-08-23T05:05:58.534Z,6.05
2023-08-23T05:07:00.206Z,5.53
2023-08-23T05:08:05.574Z,5.97
2023-08-23T05:09:07.705Z,5.10
2023-08-23T05:11:13.533Z,5.22
2023-08-23T05:12:15.907Z,5.88
2023-08-23T05:13:19.844Z,5.90
2023-08-23T05:14:21.579Z,5.95
2023-08-23T05:15:23.934Z,5.72
2023-08-23T05:16:25.764Z,6.15
2023-08-23T05:17:27.536Z,5.97
2023-08-23T05:18:29.369Z,5.60
2023-08-23T05:20:32.767Z,5.72
2023-08-23T05:21:35.085Z,5.47
2023-08-23T05:22:36.908Z,5.53
2023-08-23T05:23:38.762Z,5.40
2023-08-23T05:24:43.118Z,5.57
2023-08-23T05:25:45.963Z,5.38
2023-08-23T05:27:49.710Z,5.47
2023-08-23T05:28:54.027Z,5.50
2023-08-23T05:30:00.652Z,5.30
2023-08-23T05:31:04.162Z,6.05
2023-08-23T05:32:06.303Z,5.57
2023-08-23T05:33:08.030Z,5.90
2023-08-23T05:34:09.938Z,5.45
2023-08-23T05:35:11.991Z,5.68
2023-08-23T05:36:15.833Z,5.70
2023-08-23T05:37:20.508Z,6.22
2023-08-23T05:38:24.391Z,6.32
2023-08-23T05:39:26.878Z,5.70
2023-08-23T05:41:30.406Z,5.82
2023-08-23T05:42:34.665Z,5.85
2023-08-23T05:43:36.674Z,6.20
2023-08-23T05:45:42.135Z,5.65
2023-08-23T05:46:44.194Z,5.68
2023-08-23T05:47:47.383Z,5.93
2023-08-23T05:48:50.441Z,5.82
2023-08-23T05:49:54.550Z,6.18
2023-08-23T05:50:56.475Z,5.90
2023-08-23T05:51:58.201Z,5.40
2023-08-23T05:53:00.225Z,5.55
2023-08-23T05:54:01.869Z,5.78
2023-08-23T05:56:06.609Z,5.22
2023-08-23T05:57:08.944Z,5.63
2023-08-23T05:58:10.648Z,5.40
2023-08-23T05:59:12.453Z,5.40
2023-08-23T06:01:18.562Z,5.63
2023-08-23T06:02:20.380Z,5.30
2023-08-23T06:04:26.306Z,5.43
2023-08-23T06:05:30.487Z,5.35
2023-08-23T06:06:32.263Z,5.30
2023-08-23T06:08:38.312Z,5.68
2023-08-23T06:09:39.973Z,5.35
2023-08-23T06:10:41.699Z,5.28
2023-08-23T06:11:43.778Z,5.60
2023-08-23T06:12:45.455Z,5.50
2023-08-23T06:13:51.868Z,5.05
2023-08-23T06:14:53.721Z,5.35
2023-08-23T06:15:55.454Z,5.60
2023-08-23T06:18:01.618Z,4.88
2023-08-23T06:19:04.572Z,5.00
2023-08-23T06:20:07.732Z,5.15
2023-08-23T06:21:09.562Z,5.22
2023-08-23T06:22:11.213Z,5.50
2023-08-23T06:24:15.191Z,5.32
2023-08-23T06:25:16.828Z,4.90
2023-08-23T06:27:20.380Z,5.15
2023-08-23T06:28:22.363Z,5.57
2023-08-23T06:29:24.112Z,5.82
2023-08-23T06:30:25.826Z,5.72
2023-08-23T06:31:27.632Z,5.45
2023-08-23T06:32:32.531Z,5.28
2023-08-23T06:33:34.237Z,5.43
2023-08-23T06:34:36.587Z,5.28
2023-08-23T06:35:40.653Z,5.75
2023-08-23T06:36:42.440Z,5.22
2023-08-23T06:37:44.677Z,5.47
2023-08-23T06:38:46.565Z,5.32
2023-08-23T06:39:50.673Z,5.15
2023-08-23T06:40:54.743Z,5.45
2023-08-23T06:41:58.733Z,5.03
2023-08-23T06:43:03.020Z,5.07
2023-08-23T06:44:08.475Z,5.72
2023-08-23T06:45:11.013Z,5.70
2023-08-23T06:46:12.857Z,5.30
2023-08-23T06:47:14.560Z,5.22
2023-08-23T06:48:16.651Z,5.18
2023-08-23T06:49:18.485Z,5.15
2023-08-23T06:50:20.408Z,5.28
2023-08-23T06:51:22.846Z,5.53
2023-08-23T06:52:27.671Z,5.60
2023-08-23T06:53:29.447Z,5.53
2023-08-23T06:54:31.616Z,5.63
2023-08-23T06:55:33.806Z,5.25
2023-08-23T06:56:36.371Z,5.35
2023-08-23T06:57:41.006Z,5.60
2023-08-23T06:58:44.908Z,5.47
2023-08-23T06:59:46.619Z,5.45
2023-08-23T07:00:48.333Z,5.40
2023-08-23T07:01:50.389Z,5.22
2023-08-23T07:02:52.387Z,5.55
2023-08-23T07:03:54.262Z,5.63
2023-08-23T07:04:56.336Z,5.50
2023-08-23T07:06:06.087Z,6.10
2023-08-23T07:07:09.880Z,5.63
2023-08-23T07:08:11.843Z,5.38
2023-08-23T07:09:16.651Z,5.60
2023-08-23T07:10:28.224Z,5.70
2023-08-23T07:11:31.053Z,5.38
2023-08-23T07:12:32.878Z,5.75
2023-08-23T07:13:35.673Z,5.68
2023-08-23T07:14:37.434Z,5.80
2023-08-23T07:15:41.713Z,5.72
2023-08-23T07:16:43.550Z,5.60
2023-08-23T07:17:45.602Z,5.60
2023-08-23T07:18:47.587Z,5.53
2023-08-23T07:19:49.342Z,5.32
2023-08-23T07:20:51.155Z,5.28
2023-08-23T07:21:52.866Z,5.20
2023-08-23T07:22:57.027Z,5.72
2023-08-23T07:23:58.893Z,5.68
2023-08-23T07:25:03.262Z,6.10
2023-08-23T07:26:05.555Z,5.50
2023-08-23T07:27:07.424Z,5.78
2023-08-23T07:28:09.124Z,5.68
2023-08-23T07:29:13.071Z,6.00
2023-08-23T07:30:15.014Z,5.40
2023-08-23T07:31:17.718Z,5.50
2023-08-23T07:32:21.805Z,5.90
2023-08-23T07:33:25.000Z,5.45
2023-08-23T07:34:26.974Z,5.63
2023-08-23T07:35:28.775Z,5.63
2023-08-23T07:36:32.842Z,6.10
2023-08-23T07:37:34.594Z,5.45
2023-08-23T07:38:41.817Z,5.65
2023-08-23T07:39:43.492Z,6.50
2023-08-23T07:40:45.180Z,5.60
2023-08-23T07:41:46.821Z,5.13
2023-08-23T07:42:50.931Z,5.82
2023-08-23T07:43:54.656Z,5.90
2023-08-23T07:44:56.448Z,5.65
2023-08-23T07:46:00.007Z,5.63
2023-08-23T07:47:02.190Z,5.85
2023-08-23T07:48:04.298Z,5.50
2023-08-23T07:49:08.256Z,5.20
2023-08-23T07:50:12.457Z,5.50
2023-08-23T07:51:14.174Z,5.45
2023-08-23T07:52:15.977Z,5.30
2023-08-23T07:53:18.095Z,5.20
2023-08-23T07:54:19.755Z,5.05
2023-08-23T07:55:21.464Z,4.95
2023-08-23T07:56:23.145Z,5.53
2023-08-23T07:57:24.990Z,5.38
2023-08-23T07:58:26.918Z,5.30
2023-08-23T07:59:28.669Z,5.30
2023-08-23T08:00:32.816Z,5.30
2023-08-23T08:01:36.916Z,5.78
2023-08-23T08:02:41.616Z,5.45
2023-08-23T08:03:49.047Z,5.43
2023-08-23T08:04:53.152Z,5.45
2023-08-23T08:05:54.840Z,5.50
2023-08-23T08:06:57.596Z,5.45
2023-08-23T08:08:08.254Z,5.40
2023-08-23T08:09:11.268Z,5.80
2023-08-23T08:10:13.072Z,5.80
2023-08-23T08:11:16.224Z,5.22
2023-08-23T08:12:17.946Z,5.25
2023-08-23T08:13:19.664Z,5.65
2023-08-23T08:14:21.387Z,5.70
2023-08-23T08:15:26.050Z,5.68
2023-08-23T08:16:27.776Z,5.55
2023-08-23T08:17:29.592Z,5.35
2023-08-23T08:18:31.602Z,5.78
2023-08-23T08:19:35.390Z,5.57
2023-08-23T08:20:37.287Z,5.45
2023-08-23T08:21:42.062Z,5.72
2023-08-23T08:22:43.822Z,5.50
2023-08-23T08:23:47.666Z,5.70
2023-08-23T08:24:49.543Z,5.57
2023-08-23T08:25:51.989Z,5.88
2023-08-23T08:26:53.710Z,5.88
2023-08-23T08:27:55.415Z,5.22
2023-08-23T08:28:57.157Z,5.18
2023-08-23T08:29:59.673Z,5.70
2023-08-23T08:31:01.497Z,5.55
2023-08-23T08:32:03.188Z,5.35
2023-08-23T08:33:07.812Z,6.43
2023-08-23T08:34:10.134Z,6.57
2023-08-23T08:35:11.876Z,5.78
2023-08-23T08:36:16.140Z,6.70
2023-08-23T08:37:22.932Z,5.60
2023-08-23T08:38:24.770Z,5.75
2023-08-23T08:39:26.584Z,5.50
2023-08-23T08:40:28.326Z,5.40
2023-08-23T08:41:30.147Z,5.68
2023-08-23T08:42:32.915Z,5.80
2023-08-23T08:43:35.233Z,5.70
2023-08-23T08:44:37.270Z,5.90
2023-08-23T08:45:39.178Z,5.90
2023-08-23T08:46:40.889Z,5.97
2023-08-23T08:47:43.337Z,6.47
2023-08-23T08:48:46.276Z,6.20
2023-08-23T08:49:48.059Z,6.03
2023-08-23T08:50:50.374Z,6.07
2023-08-23T08:52:00.927Z,5.60
2023-08-23T08:53:07.482Z,5.88
2023-08-23T08:54:10.897Z,5.60
2023-08-23T08:55:13.302Z,5.55
2023-08-23T08:56:16.281Z,5.93
2023-08-23T08:57:18.413Z,5.60
2023-08-23T08:58:23.020Z,5.53
2023-08-23T08:59:27.752Z,5.10
2023-08-23T09:00:31.656Z,5.68
2023-08-23T09:01:36.552Z,5.88
2023-08-23T09:02:39.365Z,5.53
2023-08-23T09:03:42.428Z,5.72
2023-08-23T09:04:49.294Z,5.82
2023-08-23T09:05:52.593Z,5.70
2023-08-23T09:06:54.495Z,6.00
2023-08-23T09:07:57.847Z,5.90
2023-08-23T09:09:01.934Z,5.45
2023-08-23T09:10:04.765Z,5.32
2023-08-23T09:11:06.509Z,5.28
2023-08-23T09:12:13.154Z,5.45
2023-08-23T09:13:14.969Z,5.40
2023-08-23T09:14:22.328Z,5.10
2023-08-23T09:15:26.897Z,5.22
2023-08-23T09:16:28.795Z,5.07
2023-08-23T09:17:34.684Z,5.47
2023-08-23T09:18:36.465Z,5.03
2023-08-23T09:19:41.685Z,5.10
2023-08-23T09:20:43.908Z,5.00
2023-08-23T09:21:46.915Z,5.20
2023-08-23T09:22:53.293Z,5.50
2023-08-23T09:23:55.956Z,5.18
2023-08-23T09:24:57.610Z,5.00
2023-08-23T09:26:01.633Z,5.30
2023-08-23T09:27:03.514Z,4.82
2023-08-23T09:28:13.363Z,5.35
2023-08-23T09:29:15.038Z,5.28
2023-08-23T09:30:16.904Z,5.15
2023-08-23T09:31:18.675Z,5.28
2023-08-23T09:32:20.339Z,5.18
2023-08-23T09:33:22.670Z,4.93
2023-08-23T09:34:26.976Z,5.13
2023-08-23T09:35:30.668Z,4.97
2023-08-23T09:36:41.193Z,5.03
2023-08-23T09:37:50.676Z,4.80
2023-08-23T09:38:52.574Z,5.22
2023-08-23T09:39:54.535Z,4.95
2023-08-23T09:40:57.728Z,5.35
2023-08-23T09:42:09.792Z,5.25
2023-08-23T09:43:15.720Z,5.30
2023-08-23T09:44:19.612Z,4.80
2023-08-23T09:45:23.384Z,5.03
2023-08-23T09:46:28.978Z,5.10
2023-08-23T09:47:35.909Z,5.32
2023-08-23T09:48:42.277Z,5.38
2023-08-23T09:49:45.760Z,4.90
2023-08-23T09:50:54.004Z,5.43
2023-08-23T09:51:56.307Z,5.10
2023-08-23T09:53:05.614Z,5.30
2023-08-23T09:54:10.254Z,4.80
2023-08-23T09:55:15.866Z,5.05
2023-08-23T09:56:17.855Z,5.10
2023-08-23T09:57:22.275Z,4.80
2023-08-23T09:58:24.172Z,5.22
2023-08-23T09:59:26.290Z,5.00
2023-08-23T10:00:29.016Z,4.63
2023-08-23T10:01:33.964Z,5.40
2023-08-23T10:02:37.850Z,5.30
2023-08-23T10:03:40.842Z,4.90
2023-08-23T10:04:43.375Z,5.05
2023-08-23T10:05:46.644Z,4.95
2023-08-23T10:06:50.686Z,4.68
2023-08-23T10:07:55.826Z,4.95
2023-08-23T10:08:57.912Z,5.28
2023-08-23T10:09:59.808Z,5.13
2023-08-23T10:11:01.482Z,5.15
2023-08-23T10:12:05.457Z,4.72
2023-08-23T10:13:07.666Z,5.05
2023-08-23T10:14:11.629Z,5.18
2023-08-23T10:15:16.240Z,5.00
2023-08-23T10:16:20.292Z,5.18
2023-08-23T10:17:26.132Z,5.20
2023-08-23T10:18:31.648Z,4.68
2023-08-23T10:19:33.725Z,4.70
2023-08-23T10:20:36.694Z,4.97
2023-08-23T10:21:39.000Z,5.18
2023-08-23T10:22:41.747Z,4.65
2023-08-23T10:23:44.036Z,4.85
2023-08-23T10:24:49.537Z,5.05
2023-08-23T10:25:51.243Z,4.68
2023-08-23T10:26:54.002Z,5.20
2023-08-23T10:27:57.070Z,5.32
2023-08-23T10:29:01.825Z,5.18
2023-08-23T10:30:20.551Z,5.13
2023-08-23T10:31:26.584Z,4.82
2023-08-23T10:32:37.489Z,5.13
2023-08-23T10:33:41.535Z,4.78
2023-08-23T10:34:43.513Z,4.75
2023-08-23T10:35:47.190Z,4.75
2023-08-23T10:36:48.905Z,4.47
2023-08-23T10:37:54.018Z,4.45
2023-08-23T10:38:57.330Z,4.90
2023-08-23T10:40:01.425Z,5.10
2023-08-23T10:41:03.312Z,4.80
2023-08-23T10:42:05.884Z,4.75
2023-08-23T10:43:15.346Z,4.63
2023-08-23T10:44:17.273Z,4.93
2023-08-23T10:45:19.204Z,4.80
2023-08-23T10:46:23.705Z,4.68
2023-08-23T10:47:26.425Z,4.65
2023-08-23T10:48:28.385Z,4.70
2023-08-23T10:49:30.198Z,4.38
2023-08-23T10:50:34.680Z,4.47
2023-08-23T10:51:36.401Z,4.93
2023-08-23T10:52:39.008Z,4.65
2023-08-23T10:53:42.255Z,4.63
2023-08-23T10:54:44.090Z,5.65
2023-08-23T10:55:46.162Z,4.35
2023-08-23T10:56:48.535Z,4.97
2023-08-23T10:57:50.566Z,4.70
2023-08-23T10:58:52.477Z,4.50
2023-08-23T10:59:54.240Z,4.38
2023-08-23T11:00:56.833Z,4.47
2023-08-23T11:01:58.767Z,4.57
2023-08-23T11:03:00.681Z,5.00
2023-08-23T11:04:06.856Z,4.90
2023-08-23T11:05:09.697Z,4.65
2023-08-23T11:06:14.521Z,4.20
2023-08-23T11:07:18.623Z,4.60
2023-08-23T11:08:20.398Z,4.18
2023-08-23T11:09:25.033Z,4.40
2023-08-23T11:10:26.929Z,4.40
2023-08-23T11:11:31.114Z,3.90
2023-08-23T11:12:32.821Z,4.70
2023-08-23T11:13:34.493Z,4.50
2023-08-23T11:14:36.318Z,4.60
2023-08-23T11:15:38.352Z,4.35
2023-08-23T11:16:43.297Z,4.50
2023-08-23T11:17:45.039Z,4.50
2023-08-23T11:18:46.891Z,4.40
2023-08-23T11:19:51.071Z,4.35
2023-08-23T11:20:54.985Z,4.35
2023-08-23T11:21:57.712Z,4.40
2023-08-23T11:22:59.434Z,4.22
2023-08-23T11:24:07.162Z,4.22
2023-08-23T11:25:09.245Z,3.97
2023-08-23T11:26:10.991Z,4.10
2023-08-23T11:27:15.281Z,4.55
2023-08-23T11:28:20.811Z,3.90
2023-08-23T11:29:23.667Z,3.83
2023-08-23T11:30:25.735Z,4.18
2023-08-23T11:31:28.666Z,4.00
2023-08-23T11:32:31.839Z,4.10
2023-08-23T11:33:34.612Z,4.00
2023-08-23T11:34:38.390Z,3.97
2023-08-23T11:35:40.159Z,3.67
2023-08-23T11:36:42.652Z,3.50
2023-08-23T11:37:44.462Z,3.80
2023-08-23T11:38:50.494Z,3.70
2023-08-23T11:40:06.145Z,3.70
2023-08-23T11:41:09.957Z,3.70
2023-08-23T11:42:11.747Z,3.95
2023-08-23T11:43:22.587Z,4.53
2023-08-23T11:44:28.696Z,3.47
2023-08-23T11:45:38.177Z,3.60
2023-08-23T11:46:39.976Z,3.75
2023-08-23T11:47:42.325Z,3.70
2023-08-23T11:48:44.038Z,3.65
2023-08-23T11:49:49.687Z,3.80
2023-08-23T11:50:58.819Z,3.50
2023-08-23T11:52:00.492Z,3.90
2023-08-23T11:53:08.185Z,3.60
2023-08-23T11:54:12.495Z,3.70
2023-08-23T11:55:21.591Z,3.15
2023-08-23T11:56:23.302Z,3.63
2023-08-23T11:57:25.600Z,4.00
2023-08-23T11:58:27.271Z,3.47
2023-08-23T11:59:31.222Z,3.70
2023-08-23T12:00:34.612Z,3.70
2023-08-23T12:01:45.045Z,3.72
2023-08-23T12:02:47.037Z,3.50
2023-08-23T12:03:48.840Z,4.00
2023-08-23T12:04:50.525Z,3.50
2023-08-23T12:05:52.274Z,3.60
2023-08-23T12:06:54.231Z,3.70
2023-08-23T12:07:55.975Z,3.72
2023-08-23T12:08:57.641Z,3.72
2023-08-23T12:09:59.609Z,3.72
2023-08-23T12:11:03.795Z,3.70
2023-08-23T12:12:05.818Z,3.53
2023-08-23T12:13:10.059Z,3.88
2023-08-23T12:14:11.823Z,3.60
2023-08-23T12:15:13.753Z,3.53
2023-08-23T12:16:17.950Z,3.30
2023-08-23T12:17:19.709Z,3.30
2023-08-23T12:18:23.803Z,3.42
2023-08-23T12:19:31.680Z,3.20
2023-08-23T12:20:34.555Z,3.15
2023-08-23T12:21:36.463Z,3.30
2023-08-23T12:22:44.893Z,3.03
2023-08-23T12:23:46.576Z,3.30
2023-08-23T12:24:50.887Z,3.17
2023-08-23T12:25:52.644Z,3.05
2023-08-23T12:26:54.334Z,3.47
2023-08-23T12:27:56.093Z,3.30
2023-08-23T12:28:58.036Z,3.22
2023-08-23T12:29:59.881Z,3.50
2023-08-23T12:31:01.510Z,3.38
2023-08-23T12:32:03.337Z,3.25
2023-08-23T12:33:05.297Z,3.17
2023-08-23T12:34:09.256Z,3.67
2023-08-23T12:35:11.046Z,3.25
2023-08-23T12:36:17.182Z,3.10
2023-08-23T12:37:19.212Z,3.17
2023-08-23T12:38:20.898Z,3.40
2023-08-23T12:39:23.201Z,3.10
2023-08-23T12:40:25.197Z,3.42
2023-08-23T12:41:28.692Z,3.70
2023-08-23T12:42:30.403Z,3.40
2023-08-23T12:43:35.002Z,3.38
2023-08-23T12:44:36.907Z,3.40
2023-08-23T12:45:38.555Z,3.35
2023-08-23T12:46:40.198Z,3.60
2023-08-23T12:47:41.976Z,3.53
2023-08-23T12:48:43.703Z,3.70
2023-08-23T12:49:45.382Z,3.30
2023-08-23T12:50:49.515Z,3.13
2023-08-23T12:51:51.610Z,3.30
2023-08-23T12:52:53.338Z,3.80
2023-08-23T12:53:57.585Z,3.50
2023-08-23T12:54:59.589Z,3.50
2023-08-23T12:56:01.255Z,3.58
2023-08-23T12:57:03.176Z,3.47
2023-08-23T12:58:05.106Z,3.60
2023-08-23T12:59:06.854Z,3.65
2023-08-23T13:00:27.176Z,3.30
2023-08-23T13:01:31.788Z,3.58
2023-08-23T13:02:33.943Z,3.13
2023-08-23T13:03:35.749Z,3.55
2023-08-23T13:04:37.522Z,3.45
2023-08-23T13:05:39.276Z,3.47
2023-08-23T13:06:41.015Z,3.80
2023-08-23T13:07:43.161Z,3.80
2023-08-23T13:08:47.518Z,3.33
2023-08-23T13:09:50.737Z,5.43
2023-08-23T13:10:54.876Z,3.47
2023-08-23T13:11:56.561Z,3.80
2023-08-23T13:12:58.693Z,3.40
2023-08-23T13:14:00.450Z,3.83
2023-08-23T13:15:02.118Z,3.60
2023-08-23T13:16:06.347Z,3.40
2023-08-23T13:17:08.168Z,3.83
2023-08-23T13:18:09.874Z,3.20
2023-08-23T13:19:11.694Z,3.33
2023-08-23T13:20:13.793Z,3.65
2023-08-23T13:21:15.525Z,3.30
2023-08-23T13:22:17.335Z,3.50
2023-08-23T13:23:19.748Z,4.00
2023-08-23T13:24:22.794Z,3.80
2023-08-23T13:25:24.736Z,3.60
2023-08-23T13:26:27.385Z,3.47
2023-08-23T13:27:29.056Z,3.78
2023-08-23T13:28:30.856Z,3.50
2023-08-23T13:29:32.891Z,3.42
2023-08-23T13:30:34.536Z,3.30
2023-08-23T13:31:36.313Z,3.47
2023-08-23T13:32:38.188Z,3.83
2023-08-23T13:33:39.907Z,3.45
2023-08-23T13:34:41.903Z,3.60
2023-08-23T13:35:45.923Z,3.38
2023-08-23T13:36:47.819Z,3.53
2023-08-23T13:37:52.662Z,3.63
2023-08-23T13:38:54.380Z,3.10
2023-08-23T13:39:56.037Z,3.53
2023-08-23T13:41:00.081Z,3.88
2023-08-23T13:42:04.421Z,3.60
2023-08-23T13:43:16.271Z,3.78
2023-08-23T13:44:18.955Z,3.60
2023-08-23T13:45:20.741Z,3.22
2023-08-23T13:46:22.663Z,3.88
2023-08-23T13:47:26.418Z,3.22
2023-08-23T13:48:30.471Z,3.03
2023-08-23T13:49:32.162Z,3.53
2023-08-23T13:50:33.970Z,3.40
2023-08-23T13:51:37.850Z,3.50
2023-08-23T13:52:39.633Z,3.28
2023-08-23T13:53:47.261Z,2.70
2023-08-23T13:54:49.149Z,3.22
2023-08-23T13:55:50.946Z,3.50
2023-08-23T13:56:52.885Z,3.20
2023-08-23T13:57:54.732Z,3.55
2023-08-23T13:59:00.230Z,3.25
2023-08-23T14:00:02.207Z,3.30
2023-08-23T14:01:09.003Z,3.42
2023-08-23T14:02:10.723Z,3.25
2023-08-23T14:03:15.511Z,3.05
2023-08-23T14:04:17.116Z,3.13
2023-08-23T14:05:19.678Z,2.85
2023-08-23T14:06:21.503Z,3.25
2023-08-23T14:07:23.271Z,3.33
2023-08-23T14:08:25.541Z,3.22
2023-08-23T14:09:27.278Z,3.03
2023-08-23T14:10:31.402Z,3.10
2023-08-23T14:11:35.531Z,3.00
2023-08-23T14:12:40.146Z,2.60
2023-08-23T14:13:41.808Z,2.90
2023-08-23T14:14:43.521Z,3.30
2023-08-23T14:15:45.678Z,3.00
2023-08-23T14:16:50.090Z,3.55
2023-08-23T14:17:52.166Z,3.20
2023-08-23T14:18:54.317Z,2.72
2023-08-23T14:19:56.080Z,2.80
2023-08-23T14:20:57.704Z,2.97
2023-08-23T14:21:59.428Z,2.70
2023-08-23T14:23:01.118Z,3.00
2023-08-23T14:24:05.156Z,3.10
2023-08-23T14:25:08.037Z,2.88
2023-08-23T14:26:09.813Z,2.92
2023-08-23T14:27:11.730Z,3.00
2023-08-23T14:28:16.285Z,2.97
2023-08-23T14:29:18.171Z,2.75
2023-08-23T14:30:20.660Z,3.00
2023-08-23T14:31:22.508Z,2.70
2023-08-23T14:32:24.180Z,3.17
2023-08-23T14:33:25.901Z,2.67
2023-08-23T14:34:27.671Z,2.80
2023-08-23T14:35:29.293Z,2.80
2023-08-23T14:36:31.064Z,3.00
2023-08-23T14:37:34.943Z,3.00
2023-08-23T14:38:37.301Z,2.88
2023-08-23T14:39:39.415Z,3.28
2023-08-23T14:40:44.769Z,2.80
2023-08-23T14:41:47.075Z,3.03
2023-08-23T14:42:51.319Z,2.72
2023-08-23T14:43:53.109Z,2.97
2023-08-23T14:44:57.228Z,2.72
2023-08-23T14:46:00.077Z,2.92
2023-08-23T14:47:01.840Z,2.28
2023-08-23T14:48:04.727Z,2.63
2023-08-23T14:49:10.939Z,3.00
2023-08-23T14:50:12.636Z,3.00
2023-08-23T14:51:16.816Z,3.25
2023-08-23T14:52:19.637Z,2.88
2023-08-23T14:53:21.667Z,2.50
2023-08-23T14:54:23.365Z,2.65
2023-08-23T14:55:26.602Z,2.78
2023-08-23T14:56:28.344Z,2.58
2023-08-23T14:57:32.265Z,2.17
2023-08-23T14:58:33.911Z,2.70
2023-08-23T14:59:35.680Z,2.83